sensor_id;sensor_type;location;lat;lon;timestamp;pressure;altitude;pressure_sealevel;temperature;humidity
55759;BME280;41678;52.126;20.664;2022-11-02T00:00:56;100525.16;;;10.31;100.00
55759;BME280;41678;52.126;20.664;2022-11-02T00:06:19;100529.53;;;10.32;100.00
55759;BME280;41678;52.126;20.664;2022-11-02T00:11:39;100537.41;;;10.29;100.00
55759;BME280;41678;52.126;20.664;2022-11-02T00:16:58;100537.44;;;10.28;100.00
55759;BME280;41678;52.126;20.664;2022-11-02T00:22:18;100533.94;;;10.26;100.00
55759;BME280;41678;52.126;20.664;2022-11-02T00:27:37;100537.41;;;10.29;100.00
55759;BME280;41678;52.126;20.664;2022-11-02T00:32:58;100538.31;;;10.27;100.00
55759;BME280;41678;52.126;20.664;2022-11-02T00:38:17;100528.72;;;10.21;100.00
55759;BME280;41678;52.126;20.664;2022-11-02T00:43:36;100529.53;;;10.28;100.00
55759;BME280;41678;52.126;20.664;2022-11-02T00:48:57;100526.06;;;10.26;100.00
55759;BME280;41678;52.126;20.664;2022-11-02T00:54:17;100530.44;;;10.27;100.00
55759;BME280;41678;52.126;20.664;2022-11-02T00:59:36;100530.41;;;10.28;100.00
55759;BME280;41678;52.126;20.664;2022-11-02T01:04:56;100530.44;;;10.25;100.00
55759;BME280;41678;52.126;20.664;2022-11-02T01:10:15;100533.06;;;10.27;100.00
55759;BME280;41678;52.126;20.664;2022-11-02T01:15:35;100524.28;;;10.26;100.00
55759;BME280;41678;52.126;20.664;2022-11-02T01:20:56;100528.63;;;10.33;100.00
55759;BME280;41678;52.126;20.664;2022-11-02T01:26:17;100526.88;;;10.32;100.00
55759;BME280;41678;52.126;20.664;2022-11-02T01:31:37;100526.88;;;10.29;100.00
55759;BME280;41678;52.126;20.664;2022-11-02T01:36:57;100521.63;;;10.32;100.00
55759;BME280;41678;52.126;20.664;2022-11-02T01:42:22;100518.94;;;10.37;100.00
55759;BME280;41678;52.126;20.664;2022-11-02T01:47:45;100518.09;;;10.37;100.00
55759;BME280;41678;52.126;20.664;2022-11-02T01:53:06;100531.25;;;10.41;100.00
55759;BME280;41678;52.126;20.664;2022-11-02T01:58:26;100527.69;;;10.44;100.00
55759;BME280;41678;52.126;20.664;2022-11-02T02:03:47;100535.59;;;10.44;100.00
55759;BME280;41678;52.126;20.664;2022-11-02T02:09:08;100521.56;;;10.42;100.00
55759;BME280;41678;52.126;20.664;2022-11-02T02:14:28;100520.66;;;10.49;100.00
55759;BME280;41678;52.126;20.664;2022-11-02T02:25:46;100536.41;;;10.54;100.00
55759;BME280;41678;52.126;20.664;2022-11-02T02:36:33;100529.41;;;10.51;100.00
55759;BME280;41678;52.126;20.664;2022-11-02T02:47:41;100532.84;;;10.59;100.00
55759;BME280;41678;52.126;20.664;2022-11-02T02:53:04;100539.84;;;10.65;100.00
55759;BME280;41678;52.126;20.664;2022-11-02T02:58:30;100535.44;;;10.70;100.00
55759;BME280;41678;52.126;20.664;2022-11-02T03:03:50;100535.34;;;10.78;100.00
55759;BME280;41678;52.126;20.664;2022-11-02T03:26:12;100541.38;;;10.91;100.00
55759;BME280;41678;52.126;20.664;2022-11-02T03:31:55;100545.75;;;10.94;100.00
55759;BME280;41678;52.126;20.664;2022-11-02T03:42:42;100544.88;;;10.91;100.00
55759;BME280;41678;52.126;20.664;2022-11-02T03:48:05;100559.78;;;10.96;100.00
55759;BME280;41678;52.126;20.664;2022-11-02T03:53:31;100561.53;;;10.97;100.00
55759;BME280;41678;52.126;20.664;2022-11-02T03:58:53;100551.88;;;10.96;100.00
55759;BME280;41678;52.126;20.664;2022-11-02T04:04:13;100564.13;;;11.01;100.00
55759;BME280;41678;52.126;20.664;2022-11-02T04:09:35;100561.44;;;11.06;100.00
55759;BME280;41678;52.126;20.664;2022-11-02T04:14:55;100566.69;;;11.09;100.00
55759;BME280;41678;52.126;20.664;2022-11-02T04:20:15;100571.88;;;11.18;100.00
55759;BME280;41678;52.126;20.664;2022-11-02T04:25:35;100575.38;;;11.17;100.00
55759;BME280;41678;52.126;20.664;2022-11-02T04:31:07;100567.47;;;11.19;100.00
55759;BME280;41678;52.126;20.664;2022-11-02T04:36:31;100571.03;;;11.15;100.00
55759;BME280;41678;52.126;20.664;2022-11-02T04:41:51;100574.50;;;11.20;100.00
55759;BME280;41678;52.126;20.664;2022-11-02T04:47:19;100576.09;;;11.35;100.00
55759;BME280;41678;52.126;20.664;2022-11-02T04:52:39;100580.50;;;11.33;100.00
55759;BME280;41678;52.126;20.664;2022-11-02T04:58:01;100580.56;;;11.28;100.00
55759;BME280;41678;52.126;20.664;2022-11-02T05:03:20;100584.03;;;11.32;100.00
55759;BME280;41678;52.126;20.664;2022-11-02T05:08:40;100586.63;;;11.37;100.00
55759;BME280;41678;52.126;20.664;2022-11-02T05:14:00;100588.31;;;11.44;100.00
55759;BME280;41678;52.126;20.664;2022-11-02T05:19:21;100600.56;;;11.53;100.00
55759;BME280;41678;52.126;20.664;2022-11-02T05:24:41;100605.88;;;11.48;100.00
55759;BME280;41678;52.126;20.664;2022-11-02T05:30:02;100610.22;;;11.52;100.00
55759;BME280;41678;52.126;20.664;2022-11-02T05:35:22;100608.34;;;11.62;100.00
55759;BME280;41678;52.126;20.664;2022-11-02T05:40:42;100610.13;;;11.60;100.00
55759;BME280;41678;52.126;20.664;2022-11-02T05:46:03;100618.97;;;11.56;100.00
55759;BME280;41678;52.126;20.664;2022-11-02T05:51:23;100625.94;;;11.60;100.00
55759;BME280;41678;52.126;20.664;2022-11-02T05:56:43;100635.59;;;11.61;100.00
55759;BME280;41678;52.126;20.664;2022-11-02T06:02:02;100638.22;;;11.64;100.00
55759;BME280;41678;52.126;20.664;2022-11-02T06:07:21;100645.22;;;11.65;100.00
55759;BME280;41678;52.126;20.664;2022-11-02T06:12:40;100651.34;;;11.70;100.00
55759;BME280;41678;52.126;20.664;2022-11-02T06:18:01;100640.00;;;11.62;100.00
55759;BME280;41678;52.126;20.664;2022-11-02T06:23:21;100661.06;;;11.65;100.00
55759;BME280;41678;52.126;20.664;2022-11-02T06:28:41;100666.31;;;11.67;100.00
55759;BME280;41678;52.126;20.664;2022-11-02T06:34:08;100659.31;;;11.66;100.00
55759;BME280;41678;52.126;20.664;2022-11-02T06:39:27;100660.19;;;11.63;100.00
55759;BME280;41678;52.126;20.664;2022-11-02T06:44:47;100657.53;;;11.68;100.00
55759;BME280;41678;52.126;20.664;2022-11-02T06:50:07;100666.31;;;11.68;100.00
55759;BME280;41678;52.126;20.664;2022-11-02T07:03:05;100664.53;;;11.67;100.00
55759;BME280;41678;52.126;20.664;2022-11-02T07:08:26;100666.31;;;11.67;100.00
55759;BME280;41678;52.126;20.664;2022-11-02T07:13:46;100676.88;;;11.68;100.00
55759;BME280;41678;52.126;20.664;2022-11-02T07:19:06;100671.59;;;11.65;100.00
55759;BME280;41678;52.126;20.664;2022-11-02T07:24:25;100678.63;;;11.69;100.00
55759;BME280;41678;52.126;20.664;2022-11-02T07:29:45;100682.97;;;11.73;100.00
55759;BME280;41678;52.126;20.664;2022-11-02T07:35:07;100683.81;;;11.74;100.00
55759;BME280;41678;52.126;20.664;2022-11-02T07:40:29;100685.53;;;11.80;100.00
55759;BME280;41678;52.126;20.664;2022-11-02T07:45:49;100669.69;;;11.80;100.00
55759;BME280;41678;52.126;20.664;2022-11-02T07:51:09;100675.81;;;11.85;100.00
55759;BME280;41678;52.126;20.664;2022-11-02T07:56:29;100679.25;;;11.93;100.00
55759;BME280;41678;52.126;20.664;2022-11-02T08:01:49;100680.94;;;11.99;100.00
55759;BME280;41678;52.126;20.664;2022-11-02T08:07:09;100681.81;;;11.99;100.00
55759;BME280;41678;52.126;20.664;2022-11-02T08:12:29;100680.88;;;12.05;100.00
55759;BME280;41678;52.126;20.664;2022-11-02T08:18:12;100684.31;;;12.15;100.00
55759;BME280;41678;52.126;20.664;2022-11-02T08:23:32;100672.97;;;12.07;100.00
55759;BME280;41678;52.126;20.664;2022-11-02T08:28:52;100665.03;;;12.08;100.00
55759;BME280;41678;52.126;20.664;2022-11-02T08:34:12;100672.88;;;12.13;100.00
55759;BME280;41678;52.126;20.664;2022-11-02T08:39:33;100666.84;;;12.06;100.00
55759;BME280;41678;52.126;20.664;2022-11-02T08:44:56;100650.16;;;12.02;100.00
55759;BME280;41678;52.126;20.664;2022-11-02T08:50:16;100648.44;;;11.95;100.00
55759;BME280;41678;52.126;20.664;2022-11-02T08:55:36;100642.25;;;11.99;100.00
55759;BME280;41678;52.126;20.664;2022-11-02T09:00:57;100645.72;;;12.03;100.00
55759;BME280;41678;52.126;20.664;2022-11-02T09:06:17;100633.41;;;12.03;100.00
55759;BME280;41678;52.126;20.664;2022-11-02T09:11:37;100658.66;;;12.26;100.00
55759;BME280;41678;52.126;20.664;2022-11-02T09:16:57;100647.28;;;12.19;100.00
55759;BME280;41678;52.126;20.664;2022-11-02T09:22:17;100659.44;;;12.33;100.00
55759;BME280;41678;52.126;20.664;2022-11-02T09:27:39;100642.75;;;12.31;100.00
55759;BME280;41678;52.126;20.664;2022-11-02T09:33:01;100649.63;;;12.43;100.00
55759;BME280;41678;52.126;20.664;2022-11-02T09:38:20;100639.91;;;12.46;100.00
55759;BME280;41678;52.126;20.664;2022-11-02T09:44:02;100663.53;;;12.57;100.00
55759;BME280;41678;52.126;20.664;2022-11-02T09:49:27;100660.03;;;12.57;100.00
55759;BME280;41678;52.126;20.664;2022-11-02T09:54:51;100663.56;;;12.54;100.00
55759;BME280;41678;52.126;20.664;2022-11-02T10:00:14;100658.31;;;12.53;100.00
55759;BME280;41678;52.126;20.664;2022-11-02T10:05:46;100672.22;;;12.67;100.00
55759;BME280;41678;52.126;20.664;2022-11-02T10:22:26;100644.19;;;12.55;100.00
55759;BME280;41678;52.126;20.664;2022-11-02T10:27:49;100665.06;;;12.74;100.00
55759;BME280;41678;52.126;20.664;2022-11-02T10:33:16;100672.84;;;12.85;100.00
55759;BME280;41678;52.126;20.664;2022-11-02T10:39:03;100660.47;;;12.85;100.00
55759;BME280;41678;52.126;20.664;2022-11-02T10:44:51;100654.28;;;12.88;100.00
55759;BME280;41678;52.126;20.664;2022-11-02T10:51:27;100651.63;;;12.89;100.00
55759;BME280;41678;52.126;20.664;2022-11-02T10:56:28;100666.41;;;13.01;100.00
55759;BME280;41678;52.126;20.664;2022-11-02T11:07:25;100660.97;;;13.12;100.00
55759;BME280;41678;52.126;20.664;2022-11-02T11:12:46;100651.41;;;13.03;100.00
55759;BME280;41678;52.126;20.664;2022-11-02T11:18:11;100662.66;;;13.16;100.00
55759;BME280;41678;52.126;20.664;2022-11-02T11:23:32;100665.25;;;13.20;100.00
55759;BME280;41678;52.126;20.664;2022-11-02T11:28:56;100664.31;;;13.24;100.00
55759;BME280;41678;52.126;20.664;2022-11-02T11:34:27;100652.00;;;13.23;100.00
55759;BME280;41678;52.126;20.664;2022-11-02T11:39:52;100658.91;;;13.30;100.00
55759;BME280;41678;52.126;20.664;2022-11-02T11:45:27;100638.69;;;13.27;100.00
55759;BME280;41678;52.126;20.664;2022-11-02T11:50:49;100638.50;;;13.37;100.00
55759;BME280;41678;52.126;20.664;2022-11-02T11:56:24;100648.91;;;13.49;100.00
55759;BME280;41678;52.126;20.664;2022-11-02T12:01:44;100650.59;;;13.55;100.00
55759;BME280;41678;52.126;20.664;2022-11-02T12:13:02;100641.75;;;13.54;100.00
55759;BME280;41678;52.126;20.664;2022-11-02T12:35:18;100626.78;;;13.55;100.00
55759;BME280;41678;52.126;20.664;2022-11-02T12:51:57;100624.22;;;13.50;100.00
55759;BME280;41678;52.126;20.664;2022-11-02T12:57:26;100619.03;;;13.42;100.00
55759;BME280;41678;52.126;20.664;2022-11-02T13:03:04;100628.75;;;13.40;100.00
55759;BME280;41678;52.126;20.664;2022-11-02T13:08:46;100624.31;;;13.41;100.00
55759;BME280;41678;52.126;20.664;2022-11-02T13:14:19;100626.31;;;13.29;100.00
55759;BME280;41678;52.126;20.664;2022-11-02T13:19:59;100638.63;;;13.30;100.00
55759;BME280;41678;52.126;20.664;2022-11-02T13:25:34;100631.88;;;13.14;100.00
55759;BME280;41678;52.126;20.664;2022-11-02T13:30:56;100637.22;;;13.09;100.00
55759;BME280;41678;52.126;20.664;2022-11-02T13:36:17;100646.06;;;13.07;100.00
55759;BME280;41678;52.126;20.664;2022-11-02T13:41:49;100647.88;;;13.03;100.00
55759;BME280;41678;52.126;20.664;2022-11-02T13:53:08;100641.91;;;12.92;100.00
55759;BME280;41678;52.126;20.664;2022-11-02T13:58:37;100643.72;;;12.86;100.00
55759;BME280;41678;52.126;20.664;2022-11-02T14:04:06;100631.59;;;12.73;100.00
55759;BME280;41678;52.126;20.664;2022-11-02T14:09:32;100639.56;;;12.71;100.00
55759;BME280;41678;52.126;20.664;2022-11-02T14:25:56;100633.66;;;12.54;100.00
55759;BME280;41678;52.126;20.664;2022-11-02T14:37:14;100633.78;;;12.43;100.00
55759;BME280;41678;52.126;20.664;2022-11-02T14:43:21;100639.16;;;12.38;100.00
55759;BME280;41678;52.126;20.664;2022-11-02T14:48:59;100637.53;;;12.28;100.00
55759;BME280;41678;52.126;20.664;2022-11-02T14:54:20;100639.38;;;12.21;100.00
55759;BME280;41678;52.126;20.664;2022-11-02T14:59:46;100636.78;;;12.18;100.00
55759;BME280;41678;52.126;20.664;2022-11-02T15:05:20;100642.09;;;12.12;100.00
55759;BME280;41678;52.126;20.664;2022-11-02T15:10:44;100648.38;;;12.03;100.00
55759;BME280;41678;52.126;20.664;2022-11-02T15:21:29;100650.34;;;11.82;100.00
55759;BME280;41678;52.126;20.664;2022-11-02T15:26:55;100662.72;;;11.75;100.00
55759;BME280;41678;52.126;20.664;2022-11-02T15:32:19;100656.72;;;11.61;100.00
55759;BME280;41678;52.126;20.664;2022-11-02T15:37:40;100669.13;;;11.51;100.00
55759;BME280;41678;52.126;20.664;2022-11-02T15:43:07;100677.09;;;11.43;100.00
55759;BME280;41678;52.126;20.664;2022-11-02T15:48:56;100676.34;;;11.27;100.00
55759;BME280;41678;52.126;20.664;2022-11-02T16:05:47;100682.75;;;10.94;100.00
55759;BME280;41678;52.126;20.664;2022-11-02T16:11:20;100688.97;;;10.85;100.00
55759;BME280;41678;52.126;20.664;2022-11-02T16:16:47;100688.13;;;10.78;100.00
55759;BME280;41678;52.126;20.664;2022-11-02T16:22:07;100687.31;;;10.62;100.00
55759;BME280;41678;52.126;20.664;2022-11-02T16:27:27;100699.66;;;10.57;100.00
55759;BME280;41678;52.126;20.664;2022-11-02T16:32:51;100708.44;;;10.49;100.00
55759;BME280;41678;52.126;20.664;2022-11-02T16:38:16;100707.56;;;10.40;100.00
55759;BME280;41678;52.126;20.664;2022-11-02T16:43:41;100704.94;;;10.35;100.00
55759;BME280;41678;52.126;20.664;2022-11-02T17:05:17;100715.59;;;9.98;100.00
55759;BME280;41678;52.126;20.664;2022-11-02T17:10:38;100730.50;;;9.94;100.00
55759;BME280;41678;52.126;20.664;2022-11-02T17:16:10;100740.16;;;9.92;100.00
55759;BME280;41678;52.126;20.664;2022-11-02T17:21:29;100734.91;;;9.83;100.00
55759;BME280;41678;52.126;20.664;2022-11-02T17:27:22;100730.53;;;9.78;100.00
55759;BME280;41678;52.126;20.664;2022-11-02T17:32:45;100726.16;;;9.67;100.00
55759;BME280;41678;52.126;20.664;2022-11-02T17:38:07;100726.16;;;9.67;100.00
55759;BME280;41678;52.126;20.664;2022-11-02T17:43:27;100729.69;;;9.66;100.00
55759;BME280;41678;52.126;20.664;2022-11-02T17:48:47;100723.53;;;9.62;100.00
55759;BME280;41678;52.126;20.664;2022-11-02T17:54:10;100714.78;;;9.60;100.00
55759;BME280;41678;52.126;20.664;2022-11-02T17:59:31;100721.78;;;9.64;100.00
55759;BME280;41678;52.126;20.664;2022-11-02T18:04:50;100715.63;;;9.68;100.00
55759;BME280;41678;52.126;20.664;2022-11-02T18:10:10;100725.28;;;9.69;100.00
55759;BME280;41678;52.126;20.664;2022-11-02T18:15:30;100734.91;;;9.72;100.00
55759;BME280;41678;52.126;20.664;2022-11-02T18:20:51;100718.25;;;9.73;100.00
55759;BME280;41678;52.126;20.664;2022-11-02T18:26:11;100738.44;;;9.75;100.00
55759;BME280;41678;52.126;20.664;2022-11-02T18:31:31;100737.56;;;9.73;100.00
55759;BME280;41678;52.126;20.664;2022-11-02T18:36:53;100735.78;;;9.82;100.00
55759;BME280;41678;52.126;20.664;2022-11-02T18:42:12;100728.78;;;9.81;100.00
55759;BME280;41678;52.126;20.664;2022-11-02T18:47:32;100729.66;;;9.94;100.00
55759;BME280;41678;52.126;20.664;2022-11-02T18:52:52;100725.28;;;9.88;100.00
55759;BME280;41678;52.126;20.664;2022-11-02T18:58:11;100726.97;;;9.98;100.00
55759;BME280;41678;52.126;20.664;2022-11-02T19:03:31;100733.09;;;10.05;100.00
55759;BME280;41678;52.126;20.664;2022-11-02T19:08:50;100731.34;;;10.09;100.00
55759;BME280;41678;52.126;20.664;2022-11-02T19:14:35;100734.00;;;10.09;100.00
55759;BME280;41678;52.126;20.664;2022-11-02T19:19:55;100734.88;;;10.09;100.00
55759;BME280;41678;52.126;20.664;2022-11-02T19:25:15;100746.25;;;10.14;100.00
55759;BME280;41678;52.126;20.664;2022-11-02T19:30:36;100762.03;;;10.22;100.00
55759;BME280;41678;52.126;20.664;2022-11-02T19:35:56;100772.53;;;10.34;100.00
55759;BME280;41678;52.126;20.664;2022-11-02T19:41:16;100775.16;;;10.38;100.00
55759;BME280;41678;52.126;20.664;2022-11-02T19:46:36;100772.50;;;10.38;100.00
55759;BME280;41678;52.126;20.664;2022-11-02T19:51:56;100776.03;;;10.37;100.00
55759;BME280;41678;52.126;20.664;2022-11-02T19:57:16;100776.91;;;10.43;100.00
55759;BME280;41678;52.126;20.664;2022-11-02T20:02:35;100790.06;;;10.42;100.00
55759;BME280;41678;52.126;20.664;2022-11-02T20:07:55;100789.19;;;10.43;100.00
55759;BME280;41678;52.126;20.664;2022-11-02T20:13:14;100794.44;;;10.47;100.00
55759;BME280;41678;52.126;20.664;2022-11-02T20:18:35;100797.06;;;10.51;100.00
55759;BME280;41678;52.126;20.664;2022-11-02T20:23:55;100790.09;;;10.43;100.00
55759;BME280;41678;52.126;20.664;2022-11-02T20:29:15;100794.47;;;10.41;100.00
55759;BME280;41678;52.126;20.664;2022-11-02T20:34:35;100794.44;;;10.40;100.00
55759;BME280;41678;52.126;20.664;2022-11-02T20:39:55;100796.22;;;10.39;100.00
55759;BME280;41678;52.126;20.664;2022-11-02T20:45:15;100788.31;;;10.38;100.00
55759;BME280;41678;52.126;20.664;2022-11-02T20:50:36;100789.16;;;10.38;100.00
55759;BME280;41678;52.126;20.664;2022-11-02T20:55:56;100796.22;;;10.39;100.00
55759;BME280;41678;52.126;20.664;2022-11-02T21:01:19;100802.38;;;10.33;100.00
55759;BME280;41678;52.126;20.664;2022-11-02T21:06:39;100791.84;;;10.29;100.00
55759;BME280;41678;52.126;20.664;2022-11-02T21:11:58;100798.84;;;10.28;100.00
55759;BME280;41678;52.126;20.664;2022-11-02T21:17:36;100801.50;;;10.22;100.00
55759;BME280;41678;52.126;20.664;2022-11-02T21:22:57;100805.88;;;10.14;100.00
55759;BME280;41678;52.126;20.664;2022-11-02T21:28:18;100804.16;;;10.10;100.00
55759;BME280;41678;52.126;20.664;2022-11-02T21:33:38;100812.91;;;10.07;100.00
55759;BME280;41678;52.126;20.664;2022-11-02T21:38:58;100810.31;;;9.98;100.00
55759;BME280;41678;52.126;20.664;2022-11-02T21:44:17;100814.69;;;9.94;100.00
55759;BME280;41678;52.126;20.664;2022-11-02T21:49:37;100806.78;;;9.86;100.00
55759;BME280;41678;52.126;20.664;2022-11-02T21:54:56;100812.03;;;9.77;100.00
55759;BME280;41678;52.126;20.664;2022-11-02T22:00:16;100823.47;;;9.74;100.00
55759;BME280;41678;52.126;20.664;2022-11-02T22:05:43;100819.94;;;9.69;100.00
55759;BME280;41678;52.126;20.664;2022-11-02T22:11:20;100829.56;;;9.75;100.00
55759;BME280;41678;52.126;20.664;2022-11-02T22:16:41;100828.72;;;9.63;100.00
55759;BME280;41678;52.126;20.664;2022-11-02T22:22:01;100831.34;;;9.59;100.00
55759;BME280;41678;52.126;20.664;2022-11-02T22:27:21;100819.03;;;9.52;100.00
55759;BME280;41678;52.126;20.664;2022-11-02T22:32:41;100821.69;;;9.58;100.00
55759;BME280;41678;52.126;20.664;2022-11-02T22:38:00;100841.84;;;9.54;100.00
55759;BME280;41678;52.126;20.664;2022-11-02T22:43:38;100845.34;;;9.59;100.00
55759;BME280;41678;52.126;20.664;2022-11-02T22:48:58;100844.47;;;9.56;100.00
55759;BME280;41678;52.126;20.664;2022-11-02T22:54:20;100852.34;;;9.60;100.00
55759;BME280;41678;52.126;20.664;2022-11-02T22:59:40;100868.13;;;9.56;100.00
55759;BME280;41678;52.126;20.664;2022-11-02T23:05:00;100863.72;;;9.55;100.00
55759;BME280;41678;52.126;20.664;2022-11-02T23:10:19;100867.22;;;9.50;100.00
55759;BME280;41678;52.126;20.664;2022-11-02T23:16:05;100864.59;;;9.43;99.80
55759;BME280;41678;52.126;20.664;2022-11-02T23:21:59;100870.72;;;9.40;100.00
55759;BME280;41678;52.126;20.664;2022-11-02T23:27:54;100870.69;;;9.34;99.75
55759;BME280;41678;52.126;20.664;2022-11-02T23:33:33;100868.94;;;9.27;99.60
55759;BME280;41678;52.126;20.664;2022-11-02T23:38:56;100873.31;;;9.23;99.50
55759;BME280;41678;52.126;20.664;2022-11-02T23:44:34;100874.16;;;9.20;99.05
55759;BME280;41678;52.126;20.664;2022-11-02T23:49:53;100875.91;;;9.12;99.01
55759;BME280;41678;52.126;20.664;2022-11-02T23:55:14;100881.09;;;9.03;99.18
